sensor_id;sensor_type;location;lat;lon;timestamp;P1;durP1;ratioP1;P2;durP2;ratioP2
59410;SDS011;45215;32.610;-115.482;2022-10-04T00:01:31;4.88;;;3.42;;
59410;SDS011;45215;32.610;-115.482;2022-10-04T00:04:14;5.18;;;3.53;;
59410;SDS011;45215;32.610;-115.482;2022-10-04T00:06:44;5.22;;;3.83;;
59410;SDS011;45215;32.610;-115.482;2022-10-04T00:09:33;4.93;;;3.53;;
59410;SDS011;45215;32.610;-115.482;2022-10-04T00:12:13;5.53;;;3.40;;
59410;SDS011;45215;32.610;-115.482;2022-10-04T00:14:51;4.55;;;3.20;;
59410;SDS011;45215;32.610;-115.482;2022-10-04T00:17:23;5.03;;;3.33;;
59410;SDS011;45215;32.610;-115.482;2022-10-04T00:19:56;5.38;;;3.30;;
59410;SDS011;45215;32.610;-115.482;2022-10-04T00:27:38;4.20;;;2.95;;
59410;SDS011;45215;32.610;-115.482;2022-10-04T00:35:05;3.42;;;2.47;;
59410;SDS011;45215;32.610;-115.482;2022-10-04T00:43:08;3.53;;;2.50;;
59410;SDS011;45215;32.610;-115.482;2022-10-04T00:45:56;3.00;;;2.28;;
59410;SDS011;45215;32.610;-115.482;2022-10-04T00:51:19;4.18;;;2.40;;
59410;SDS011;45215;32.610;-115.482;2022-10-04T00:54:04;3.72;;;2.63;;
59410;SDS011;45215;32.610;-115.482;2022-10-04T00:59:41;3.42;;;2.50;;
59410;SDS011;45215;32.610;-115.482;2022-10-04T01:02:15;3.45;;;2.47;;
59410;SDS011;45215;32.610;-115.482;2022-10-04T01:07:15;2.95;;;2.13;;
59410;SDS011;45215;32.610;-115.482;2022-10-04T01:09:52;2.50;;;2.05;;
59410;SDS011;45215;32.610;-115.482;2022-10-04T01:15:21;3.35;;;2.22;;
59410;SDS011;45215;32.610;-115.482;2022-10-04T01:18:05;8.52;;;2.50;;
59410;SDS011;45215;32.610;-115.482;2022-10-04T01:23:37;5.32;;;2.30;;
59410;SDS011;45215;32.610;-115.482;2022-10-04T01:31:42;2.78;;;1.67;;
59410;SDS011;45215;32.610;-115.482;2022-10-04T01:34:17;4.05;;;1.95;;
59410;SDS011;45215;32.610;-115.482;2022-10-04T01:36:45;3.30;;;1.90;;
59410;SDS011;45215;32.610;-115.482;2022-10-04T01:39:13;2.90;;;1.77;;
59410;SDS011;45215;32.610;-115.482;2022-10-04T01:41:46;2.25;;;1.77;;
59410;SDS011;45215;32.610;-115.482;2022-10-04T01:44:35;2.25;;;1.60;;
59410;SDS011;45215;32.610;-115.482;2022-10-04T01:47:12;2.17;;;1.65;;
59410;SDS011;45215;32.610;-115.482;2022-10-04T01:49:44;1.63;;;1.45;;
59410;SDS011;45215;32.610;-115.482;2022-10-04T01:54:43;2.30;;;1.58;;
59410;SDS011;45215;32.610;-115.482;2022-10-04T01:57:14;2.20;;;1.50;;
59410;SDS011;45215;32.610;-115.482;2022-10-04T01:59:53;2.42;;;1.45;;
59410;SDS011;45215;32.610;-115.482;2022-10-04T02:02:32;2.83;;;1.35;;
59410;SDS011;45215;32.610;-115.482;2022-10-04T02:05:05;5.05;;;1.70;;
59410;SDS011;45215;32.610;-115.482;2022-10-04T02:07:35;1.95;;;1.42;;
59410;SDS011;45215;32.610;-115.482;2022-10-04T02:10:04;2.33;;;1.40;;
59410;SDS011;45215;32.610;-115.482;2022-10-04T02:12:37;2.58;;;1.60;;
59410;SDS011;45215;32.610;-115.482;2022-10-04T02:15:11;2.72;;;1.45;;
59410;SDS011;45215;32.610;-115.482;2022-10-04T02:17:42;3.17;;;1.50;;
59410;SDS011;45215;32.610;-115.482;2022-10-04T02:20:10;2.22;;;1.70;;
59410;SDS011;45215;32.610;-115.482;2022-10-04T02:22:44;1.92;;;1.48;;
59410;SDS011;45215;32.610;-115.482;2022-10-04T02:25:15;2.97;;;1.40;;
59410;SDS011;45215;32.610;-115.482;2022-10-04T02:27:44;2.80;;;1.60;;
59410;SDS011;45215;32.610;-115.482;2022-10-04T02:30:11;1.40;;;1.23;;
59410;SDS011;45215;32.610;-115.482;2022-10-04T02:32:38;2.33;;;1.48;;
59410;SDS011;45215;32.610;-115.482;2022-10-04T02:35:29;2.40;;;1.70;;
59410;SDS011;45215;32.610;-115.482;2022-10-04T02:40:49;3.38;;;1.45;;
59410;SDS011;45215;32.610;-115.482;2022-10-04T02:43:23;1.77;;;1.38;;
59410;SDS011;45215;32.610;-115.482;2022-10-04T02:45:56;1.65;;;1.30;;
59410;SDS011;45215;32.610;-115.482;2022-10-04T02:48:36;2.20;;;1.40;;
59410;SDS011;45215;32.610;-115.482;2022-10-04T02:51:16;2.20;;;1.40;;
59410;SDS011;45215;32.610;-115.482;2022-10-04T02:53:54;3.00;;;1.40;;
59410;SDS011;45215;32.610;-115.482;2022-10-04T02:56:22;2.10;;;1.33;;
59410;SDS011;45215;32.610;-115.482;2022-10-04T02:58:49;2.28;;;1.67;;
59410;SDS011;45215;32.610;-115.482;2022-10-04T03:01:25;2.10;;;1.50;;
59410;SDS011;45215;32.610;-115.482;2022-10-04T03:03:54;2.33;;;1.42;;
59410;SDS011;45215;32.610;-115.482;2022-10-04T03:06:22;2.00;;;1.20;;
59410;SDS011;45215;32.610;-115.482;2022-10-04T03:08:54;2.10;;;1.40;;
59410;SDS011;45215;32.610;-115.482;2022-10-04T03:11:23;1.98;;;1.40;;
59410;SDS011;45215;32.610;-115.482;2022-10-04T03:13:54;1.73;;;1.27;;
59410;SDS011;45215;32.610;-115.482;2022-10-04T03:16:24;2.47;;;1.48;;
59410;SDS011;45215;32.610;-115.482;2022-10-04T03:18:52;1.90;;;1.38;;
59410;SDS011;45215;32.610;-115.482;2022-10-04T03:21:22;2.00;;;1.40;;
59410;SDS011;45215;32.610;-115.482;2022-10-04T03:23:49;2.25;;;1.40;;
59410;SDS011;45215;32.610;-115.482;2022-10-04T03:29:04;1.98;;;1.33;;
59410;SDS011;45215;32.610;-115.482;2022-10-04T03:31:36;1.58;;;1.38;;
59410;SDS011;45215;32.610;-115.482;2022-10-04T03:34:19;2.30;;;1.50;;
59410;SDS011;45215;32.610;-115.482;2022-10-04T03:36:58;1.88;;;1.40;;
59410;SDS011;45215;32.610;-115.482;2022-10-04T03:39:33;2.53;;;1.40;;
59410;SDS011;45215;32.610;-115.482;2022-10-04T03:42:15;2.63;;;1.50;;
59410;SDS011;45215;32.610;-115.482;2022-10-04T03:44:44;2.28;;;1.50;;
59410;SDS011;45215;32.610;-115.482;2022-10-04T03:47:34;2.67;;;1.50;;
59410;SDS011;45215;32.610;-115.482;2022-10-04T03:50:06;1.60;;;1.30;;
59410;SDS011;45215;32.610;-115.482;2022-10-04T03:53:43;3.58;;;1.40;;
59410;SDS011;45215;32.610;-115.482;2022-10-04T03:55:50;2.60;;;1.52;;
59410;SDS011;45215;32.610;-115.482;2022-10-04T03:58:17;1.95;;;1.20;;
59410;SDS011;45215;32.610;-115.482;2022-10-04T04:00:52;2.17;;;1.40;;
59410;SDS011;45215;32.610;-115.482;2022-10-04T04:06:27;3.33;;;1.50;;
59410;SDS011;45215;32.610;-115.482;2022-10-04T04:09:02;2.85;;;1.40;;
59410;SDS011;45215;32.610;-115.482;2022-10-04T04:11:30;2.33;;;1.40;;
59410;SDS011;45215;32.610;-115.482;2022-10-04T04:14:07;2.83;;;1.52;;
59410;SDS011;45215;32.610;-115.482;2022-10-04T04:16:38;2.00;;;1.73;;
59410;SDS011;45215;32.610;-115.482;2022-10-04T04:19:09;1.55;;;1.40;;
59410;SDS011;45215;32.610;-115.482;2022-10-04T04:21:39;2.00;;;1.30;;
59410;SDS011;45215;32.610;-115.482;2022-10-04T04:24:28;3.00;;;1.40;;
59410;SDS011;45215;32.610;-115.482;2022-10-04T04:26:57;1.92;;;1.30;;
59410;SDS011;45215;32.610;-115.482;2022-10-04T04:34:50;35.30;;;2.85;;
59410;SDS011;45215;32.610;-115.482;2022-10-04T04:37:25;9.93;;;1.70;;
59410;SDS011;45215;32.610;-115.482;2022-10-04T04:39:51;3.78;;;1.60;;
59410;SDS011;45215;32.610;-115.482;2022-10-04T04:42:29;21.25;;;11.77;;
59410;SDS011;45215;32.610;-115.482;2022-10-04T04:47:41;24.77;;;20.75;;
59410;SDS011;45215;32.610;-115.482;2022-10-04T04:50:15;43.30;;;38.92;;
59410;SDS011;45215;32.610;-115.482;2022-10-04T04:52:50;72.78;;;65.85;;
59410;SDS011;45215;32.610;-115.482;2022-10-04T04:55:23;112.43;;;101.28;;
59410;SDS011;45215;32.610;-115.482;2022-10-04T05:00:30;99.93;;;90.30;;
59410;SDS011;45215;32.610;-115.482;2022-10-04T05:03:00;93.25;;;84.20;;
59410;SDS011;45215;32.610;-115.482;2022-10-04T05:05:29;88.47;;;79.85;;
59410;SDS011;45215;32.610;-115.482;2022-10-04T05:10:51;82.85;;;74.80;;
59410;SDS011;45215;32.610;-115.482;2022-10-04T05:16:36;71.35;;;64.15;;
59410;SDS011;45215;32.610;-115.482;2022-10-04T05:19:07;65.90;;;59.58;;
59410;SDS011;45215;32.610;-115.482;2022-10-04T05:21:40;65.22;;;58.80;;
59410;SDS011;45215;32.610;-115.482;2022-10-04T05:24:16;61.70;;;55.58;;
59410;SDS011;45215;32.610;-115.482;2022-10-04T05:26:59;57.40;;;51.83;;
59410;SDS011;45215;32.610;-115.482;2022-10-04T05:29:32;55.35;;;49.85;;
59410;SDS011;45215;32.610;-115.482;2022-10-04T05:34:57;50.15;;;45.15;;
59410;SDS011;45215;32.610;-115.482;2022-10-04T05:37:27;47.25;;;42.72;;
59410;SDS011;45215;32.610;-115.482;2022-10-04T05:40:17;45.17;;;40.83;;
59410;SDS011;45215;32.610;-115.482;2022-10-04T05:42:59;43.22;;;38.97;;
59410;SDS011;45215;32.610;-115.482;2022-10-04T05:45:26;40.33;;;36.30;;
59410;SDS011;45215;32.610;-115.482;2022-10-04T05:47:55;37.92;;;34.22;;
59410;SDS011;45215;32.610;-115.482;2022-10-04T05:50:30;36.78;;;33.20;;
59410;SDS011;45215;32.610;-115.482;2022-10-04T05:56:15;36.38;;;32.70;;
59410;SDS011;45215;32.610;-115.482;2022-10-04T05:59:09;35.70;;;31.80;;
59410;SDS011;45215;32.610;-115.482;2022-10-04T06:10:10;52.95;;;38.50;;
59410;SDS011;45215;32.610;-115.482;2022-10-04T06:12:58;63.90;;;43.90;;
59410;SDS011;45215;32.610;-115.482;2022-10-04T06:24:07;69.22;;;44.88;;
59410;SDS011;45215;32.610;-115.482;2022-10-04T06:29:09;71.63;;;45.70;;
59410;SDS011;45215;32.610;-115.482;2022-10-04T06:45:54;73.63;;;45.05;;
59410;SDS011;45215;32.610;-115.482;2022-10-04T06:48:50;68.53;;;44.22;;
59410;SDS011;45215;32.610;-115.482;2022-10-04T06:54:50;71.93;;;44.92;;
59410;SDS011;45215;32.610;-115.482;2022-10-04T07:00:18;67.18;;;42.22;;
59410;SDS011;45215;32.610;-115.482;2022-10-04T07:02:49;66.03;;;41.53;;
59410;SDS011;45215;32.610;-115.482;2022-10-04T07:08:12;66.95;;;40.45;;
59410;SDS011;45215;32.610;-115.482;2022-10-04T07:21:23;61.65;;;38.40;;
59410;SDS011;45215;32.610;-115.482;2022-10-04T07:23:59;59.90;;;37.58;;
59410;SDS011;45215;32.610;-115.482;2022-10-04T07:26:47;58.92;;;36.65;;
59410;SDS011;45215;32.610;-115.482;2022-10-04T07:29:19;60.50;;;36.47;;
59410;SDS011;45215;32.610;-115.482;2022-10-04T07:40:36;55.00;;;32.22;;
59410;SDS011;45215;32.610;-115.482;2022-10-04T07:43:21;51.35;;;32.97;;
59410;SDS011;45215;32.610;-115.482;2022-10-04T07:46:42;49.47;;;31.48;;
59410;SDS011;45215;32.610;-115.482;2022-10-04T07:49:12;45.13;;;29.03;;
59410;SDS011;45215;32.610;-115.482;2022-10-04T07:51:49;47.83;;;30.23;;
59410;SDS011;45215;32.610;-115.482;2022-10-04T07:57:10;47.65;;;28.20;;
59410;SDS011;45215;32.610;-115.482;2022-10-04T08:00:10;44.38;;;27.67;;
59410;SDS011;45215;32.610;-115.482;2022-10-04T08:03:08;45.55;;;27.98;;
59410;SDS011;45215;32.610;-115.482;2022-10-04T08:05:50;43.08;;;26.50;;
59410;SDS011;45215;32.610;-115.482;2022-10-04T08:14:12;40.95;;;25.38;;
59410;SDS011;45215;32.610;-115.482;2022-10-04T08:19:55;40.33;;;24.98;;
59410;SDS011;45215;32.610;-115.482;2022-10-04T08:25:37;35.47;;;22.52;;
59410;SDS011;45215;32.610;-115.482;2022-10-04T08:59:47;26.67;;;16.60;;
59410;SDS011;45215;32.610;-115.482;2022-10-04T09:25:31;20.45;;;13.30;;
59410;SDS011;45215;32.610;-115.482;2022-10-04T09:28:09;19.05;;;12.88;;
59410;SDS011;45215;32.610;-115.482;2022-10-04T09:39:50;17.02;;;11.68;;
59410;SDS011;45215;32.610;-115.482;2022-10-04T09:59:31;14.52;;;9.35;;
59410;SDS011;45215;32.610;-115.482;2022-10-04T10:25:26;11.93;;;8.00;;
59410;SDS011;45215;32.610;-115.482;2022-10-04T10:30:50;11.13;;;7.53;;
59410;SDS011;45215;32.610;-115.482;2022-10-04T10:33:33;10.10;;;7.15;;
59410;SDS011;45215;32.610;-115.482;2022-10-04T10:36:22;10.55;;;7.10;;
59410;SDS011;45215;32.610;-115.482;2022-10-04T10:57:36;8.68;;;5.68;;
59410;SDS011;45215;32.610;-115.482;2022-10-04T11:03:33;9.00;;;6.38;;
59410;SDS011;45215;32.610;-115.482;2022-10-04T11:09:29;8.93;;;5.30;;
59410;SDS011;45215;32.610;-115.482;2022-10-04T11:17:39;7.05;;;5.07;;
59410;SDS011;45215;32.610;-115.482;2022-10-04T11:25:47;6.47;;;4.82;;
59410;SDS011;45215;32.610;-115.482;2022-10-04T11:37:04;6.70;;;4.32;;
59410;SDS011;45215;32.610;-115.482;2022-10-04T11:39:46;5.25;;;4.05;;
59410;SDS011;45215;32.610;-115.482;2022-10-04T12:10:23;3.80;;;3.08;;
59410;SDS011;45215;32.610;-115.482;2022-10-04T12:26:49;4.85;;;2.85;;
59410;SDS011;45215;32.610;-115.482;2022-10-04T12:45:58;4.82;;;2.83;;
59410;SDS011;45215;32.610;-115.482;2022-10-04T12:48:39;3.60;;;2.60;;
59410;SDS011;45215;32.610;-115.482;2022-10-04T12:56:59;5.53;;;2.85;;
59410;SDS011;45215;32.610;-115.482;2022-10-04T12:59:54;490.67;;;84.47;;
59410;SDS011;45215;32.610;-115.482;2022-10-04T13:05:15;58.10;;;9.23;;
59410;SDS011;45215;32.610;-115.482;2022-10-04T13:16:54;34.92;;;7.18;;
59410;SDS011;45215;32.610;-115.482;2022-10-04T13:30:00;51.00;;;27.75;;
59410;SDS011;45215;32.610;-115.482;2022-10-04T13:32:31;60.10;;;24.08;;
59410;SDS011;45215;32.610;-115.482;2022-10-04T13:40:28;48.08;;;25.35;;
59410;SDS011;45215;32.610;-115.482;2022-10-04T14:31:00;18.02;;;12.20;;
59410;SDS011;45215;32.610;-115.482;2022-10-04T14:48:07;16.80;;;10.73;;
59410;SDS011;45215;32.610;-115.482;2022-10-04T14:53:53;15.68;;;10.70;;
59410;SDS011;45215;32.610;-115.482;2022-10-04T15:07:22;11.45;;;9.55;;
59410;SDS011;45215;32.610;-115.482;2022-10-04T15:13:36;13.77;;;9.50;;
59410;SDS011;45215;32.610;-115.482;2022-10-04T15:18:54;12.82;;;8.40;;
59410;SDS011;45215;32.610;-115.482;2022-10-04T15:24:31;11.88;;;8.82;;
59410;SDS011;45215;32.610;-115.482;2022-10-04T15:30:11;10.80;;;7.88;;
59410;SDS011;45215;32.610;-115.482;2022-10-04T15:32:52;11.13;;;7.97;;
59410;SDS011;45215;32.610;-115.482;2022-10-04T15:36:02;8.38;;;6.80;;
59410;SDS011;45215;32.610;-115.482;2022-10-04T15:39:07;8.98;;;7.00;;
59410;SDS011;45215;32.610;-115.482;2022-10-04T15:44:56;8.70;;;7.20;;
59410;SDS011;45215;32.610;-115.482;2022-10-04T15:47:32;8.40;;;6.60;;
59410;SDS011;45215;32.610;-115.482;2022-10-04T16:05:06;7.15;;;5.18;;
59410;SDS011;45215;32.610;-115.482;2022-10-04T16:10:29;8.82;;;6.22;;
59410;SDS011;45215;32.610;-115.482;2022-10-04T16:15:35;7.88;;;5.40;;
59410;SDS011;45215;32.610;-115.482;2022-10-04T16:23:25;6.95;;;4.78;;
59410;SDS011;45215;32.610;-115.482;2022-10-04T16:56:29;5.10;;;3.92;;
59410;SDS011;45215;32.610;-115.482;2022-10-04T16:59:14;6.88;;;4.57;;
59410;SDS011;45215;32.610;-115.482;2022-10-04T17:02:15;6.15;;;3.80;;
59410;SDS011;45215;32.610;-115.482;2022-10-04T17:16:38;4.53;;;3.63;;
59410;SDS011;45215;32.610;-115.482;2022-10-04T17:19:27;5.80;;;4.93;;
59410;SDS011;45215;32.610;-115.482;2022-10-04T17:22:01;13.27;;;8.57;;
59410;SDS011;45215;32.610;-115.482;2022-10-04T17:27:25;31.63;;;18.83;;
59410;SDS011;45215;32.610;-115.482;2022-10-04T17:32:43;35.88;;;22.85;;
59410;SDS011;45215;32.610;-115.482;2022-10-04T17:35:42;39.35;;;24.20;;
59410;SDS011;45215;32.610;-115.482;2022-10-04T17:46:02;49.88;;;31.13;;
59410;SDS011;45215;32.610;-115.482;2022-10-04T17:48:56;55.83;;;33.50;;
59410;SDS011;45215;32.610;-115.482;2022-10-04T17:51:49;58.80;;;34.53;;
59410;SDS011;45215;32.610;-115.482;2022-10-04T17:57:23;57.67;;;35.38;;
59410;SDS011;45215;32.610;-115.482;2022-10-04T17:59:52;58.25;;;35.50;;
59410;SDS011;45215;32.610;-115.482;2022-10-04T18:04:59;58.30;;;36.80;;
59410;SDS011;45215;32.610;-115.482;2022-10-04T18:08:16;60.05;;;36.60;;
59410;SDS011;45215;32.610;-115.482;2022-10-04T18:10:49;59.80;;;36.00;;
59410;SDS011;45215;32.610;-115.482;2022-10-04T18:21:53;56.75;;;34.78;;
59410;SDS011;45215;32.610;-115.482;2022-10-04T18:24:43;59.95;;;35.58;;
59410;SDS011;45215;32.610;-115.482;2022-10-04T18:27:18;56.22;;;34.35;;
59410;SDS011;45215;32.610;-115.482;2022-10-04T18:29:57;53.45;;;32.53;;
59410;SDS011;45215;32.610;-115.482;2022-10-04T18:32:31;50.25;;;32.03;;
59410;SDS011;45215;32.610;-115.482;2022-10-04T18:35:00;50.50;;;32.05;;
59410;SDS011;45215;32.610;-115.482;2022-10-04T18:37:43;51.35;;;32.58;;
59410;SDS011;45215;32.610;-115.482;2022-10-04T18:40:17;48.50;;;30.77;;
59410;SDS011;45215;32.610;-115.482;2022-10-04T18:42:50;49.72;;;30.48;;
59410;SDS011;45215;32.610;-115.482;2022-10-04T18:45:23;48.85;;;29.77;;
59410;SDS011;45215;32.610;-115.482;2022-10-04T18:47:52;47.15;;;29.52;;
59410;SDS011;45215;32.610;-115.482;2022-10-04T18:53:01;44.28;;;27.60;;
59410;SDS011;45215;32.610;-115.482;2022-10-04T19:12:35;39.63;;;23.33;;
59410;SDS011;45215;32.610;-115.482;2022-10-04T19:15:20;34.95;;;22.52;;
59410;SDS011;45215;32.610;-115.482;2022-10-04T19:26:37;29.50;;;19.85;;
59410;SDS011;45215;32.610;-115.482;2022-10-04T19:29:29;26.42;;;18.10;;
59410;SDS011;45215;32.610;-115.482;2022-10-04T19:32:03;27.80;;;17.65;;
59410;SDS011;45215;32.610;-115.482;2022-10-04T19:37:14;26.27;;;17.40;;
59410;SDS011;45215;32.610;-115.482;2022-10-04T19:39:51;23.63;;;16.52;;
59410;SDS011;45215;32.610;-115.482;2022-10-04T19:47:51;23.00;;;15.35;;
59410;SDS011;45215;32.610;-115.482;2022-10-04T19:50:23;25.08;;;14.50;;
59410;SDS011;45215;32.610;-115.482;2022-10-04T19:53:13;23.02;;;15.40;;
59410;SDS011;45215;32.610;-115.482;2022-10-04T20:00:47;22.10;;;13.70;;
59410;SDS011;45215;32.610;-115.482;2022-10-04T20:03:13;18.90;;;13.27;;
59410;SDS011;45215;32.610;-115.482;2022-10-04T20:05:49;18.42;;;12.60;;
59410;SDS011;45215;32.610;-115.482;2022-10-04T20:21:53;13.93;;;10.50;;
59410;SDS011;45215;32.610;-115.482;2022-10-04T20:24:53;15.40;;;10.30;;
59410;SDS011;45215;32.610;-115.482;2022-10-04T20:34:52;12.95;;;8.85;;
59410;SDS011;45215;32.610;-115.482;2022-10-04T20:37:20;12.70;;;8.68;;
59410;SDS011;45215;32.610;-115.482;2022-10-04T20:40:06;12.55;;;8.52;;
59410;SDS011;45215;32.610;-115.482;2022-10-04T20:42:38;11.57;;;8.23;;
59410;SDS011;45215;32.610;-115.482;2022-10-04T20:50:34;10.65;;;7.28;;
59410;SDS011;45215;32.610;-115.482;2022-10-04T20:53:04;10.20;;;7.40;;
59410;SDS011;45215;32.610;-115.482;2022-10-04T20:55:38;9.90;;;6.97;;
59410;SDS011;45215;32.610;-115.482;2022-10-04T21:06:53;8.02;;;5.90;;
59410;SDS011;45215;32.610;-115.482;2022-10-04T21:09:20;9.60;;;6.47;;
59410;SDS011;45215;32.610;-115.482;2022-10-04T21:11:48;9.32;;;5.97;;
59410;SDS011;45215;32.610;-115.482;2022-10-04T21:16:48;8.40;;;5.72;;
59410;SDS011;45215;32.610;-115.482;2022-10-04T21:22:03;6.35;;;5.05;;
59410;SDS011;45215;32.610;-115.482;2022-10-04T21:29:58;8.15;;;4.90;;
59410;SDS011;45215;32.610;-115.482;2022-10-04T21:32:33;6.80;;;4.40;;
59410;SDS011;45215;32.610;-115.482;2022-10-04T21:35:01;8.88;;;5.10;;
59410;SDS011;45215;32.610;-115.482;2022-10-04T21:37:31;5.90;;;4.60;;
59410;SDS011;45215;32.610;-115.482;2022-10-04T21:39:58;5.60;;;4.20;;
59410;SDS011;45215;32.610;-115.482;2022-10-04T21:42:24;8.80;;;4.47;;
59410;SDS011;45215;32.610;-115.482;2022-10-04T21:44:51;9.85;;;4.50;;
59410;SDS011;45215;32.610;-115.482;2022-10-04T21:47:18;21.67;;;4.15;;
59410;SDS011;45215;32.610;-115.482;2022-10-04T21:49:47;10.40;;;4.32;;
59410;SDS011;45215;32.610;-115.482;2022-10-04T21:52:18;8.52;;;3.95;;
59410;SDS011;45215;32.610;-115.482;2022-10-04T21:54:44;6.53;;;3.88;;
59410;SDS011;45215;32.610;-115.482;2022-10-04T21:57:10;11.82;;;3.85;;
59410;SDS011;45215;32.610;-115.482;2022-10-04T21:59:37;6.35;;;3.50;;
59410;SDS011;45215;32.610;-115.482;2022-10-04T22:02:03;5.28;;;3.42;;
59410;SDS011;45215;32.610;-115.482;2022-10-04T22:04:31;4.50;;;3.17;;
59410;SDS011;45215;32.610;-115.482;2022-10-04T22:06:57;4.25;;;3.22;;
59410;SDS011;45215;32.610;-115.482;2022-10-04T22:09:24;6.88;;;3.38;;
59410;SDS011;45215;32.610;-115.482;2022-10-04T22:11:50;5.70;;;3.25;;
59410;SDS011;45215;32.610;-115.482;2022-10-04T22:14:16;4.97;;;3.10;;
59410;SDS011;45215;32.610;-115.482;2022-10-04T22:16:42;5.20;;;3.10;;
59410;SDS011;45215;32.610;-115.482;2022-10-04T22:19:08;3.85;;;3.10;;
59410;SDS011;45215;32.610;-115.482;2022-10-04T22:21:34;4.03;;;2.70;;
59410;SDS011;45215;32.610;-115.482;2022-10-04T22:24:01;6.15;;;2.67;;
59410;SDS011;45215;32.610;-115.482;2022-10-04T22:26:28;4.68;;;2.92;;
59410;SDS011;45215;32.610;-115.482;2022-10-04T22:28:56;2.80;;;2.25;;
59410;SDS011;45215;32.610;-115.482;2022-10-04T22:31:26;5.05;;;2.75;;
59410;SDS011;45215;32.610;-115.482;2022-10-04T22:33:54;3.55;;;2.53;;
59410;SDS011;45215;32.610;-115.482;2022-10-04T22:41:32;3.65;;;2.30;;
59410;SDS011;45215;32.610;-115.482;2022-10-04T22:46:44;2.55;;;2.00;;
59410;SDS011;45215;32.610;-115.482;2022-10-04T22:49:17;3.35;;;2.40;;
59410;SDS011;45215;32.610;-115.482;2022-10-04T22:51:47;3.15;;;1.80;;
59410;SDS011;45215;32.610;-115.482;2022-10-04T22:54:15;2.17;;;1.90;;
59410;SDS011;45215;32.610;-115.482;2022-10-04T22:56:43;2.75;;;2.10;;
59410;SDS011;45215;32.610;-115.482;2022-10-04T22:59:10;2.38;;;1.85;;
59410;SDS011;45215;32.610;-115.482;2022-10-04T23:01:38;3.38;;;2.15;;
59410;SDS011;45215;32.610;-115.482;2022-10-04T23:04:21;2.42;;;1.80;;
59410;SDS011;45215;32.610;-115.482;2022-10-04T23:06:49;2.97;;;1.73;;
59410;SDS011;45215;32.610;-115.482;2022-10-04T23:09:16;2.05;;;1.65;;
59410;SDS011;45215;32.610;-115.482;2022-10-04T23:11:43;2.28;;;1.63;;
59410;SDS011;45215;32.610;-115.482;2022-10-04T23:14:10;2.38;;;1.92;;
59410;SDS011;45215;32.610;-115.482;2022-10-04T23:16:36;2.22;;;1.88;;
59410;SDS011;45215;32.610;-115.482;2022-10-04T23:19:16;2.30;;;1.50;;
59410;SDS011;45215;32.610;-115.482;2022-10-04T23:21:47;2.03;;;1.65;;
59410;SDS011;45215;32.610;-115.482;2022-10-04T23:24:16;1.80;;;1.50;;
59410;SDS011;45215;32.610;-115.482;2022-10-04T23:26:45;2.65;;;1.48;;
59410;SDS011;45215;32.610;-115.482;2022-10-04T23:29:23;2.35;;;1.50;;
59410;SDS011;45215;32.610;-115.482;2022-10-04T23:31:52;1.90;;;1.52;;
59410;SDS011;45215;32.610;-115.482;2022-10-04T23:34:27;2.40;;;1.90;;
59410;SDS011;45215;32.610;-115.482;2022-10-04T23:37:00;2.67;;;1.60;;
59410;SDS011;45215;32.610;-115.482;2022-10-04T23:39:28;2.60;;;1.55;;
59410;SDS011;45215;32.610;-115.482;2022-10-04T23:41:56;1.60;;;1.33;;
59410;SDS011;45215;32.610;-115.482;2022-10-04T23:44:25;2.53;;;1.48;;
59410;SDS011;45215;32.610;-115.482;2022-10-04T23:46:58;3.05;;;1.35;;
59410;SDS011;45215;32.610;-115.482;2022-10-04T23:49:24;4.32;;;1.58;;
59410;SDS011;45215;32.610;-115.482;2022-10-04T23:51:53;4.18;;;1.30;;
59410;SDS011;45215;32.610;-115.482;2022-10-04T23:54:24;1.52;;;1.40;;
59410;SDS011;45215;32.610;-115.482;2022-10-04T23:56:50;4.60;;;1.30;;
59410;SDS011;45215;32.610;-115.482;2022-10-04T23:59:18;4.80;;;1.50;;
